createdAt,value
2022-09-21T00:01:25.007Z,15.62
2022-09-21T00:04:00.295Z,15.62
2022-09-21T00:06:28.961Z,15.62
2022-09-21T00:08:58.197Z,15.63
2022-09-21T00:11:28.088Z,15.66
2022-09-21T00:14:07.278Z,15.69
2022-09-21T00:16:35.239Z,15.72
2022-09-21T00:19:02.299Z,15.73
2022-09-21T00:21:29.052Z,15.75
2022-09-21T00:23:57.421Z,15.76
2022-09-21T00:26:26.542Z,15.76
2022-09-21T00:28:55.408Z,15.78
2022-09-21T00:31:22.742Z,15.79
2022-09-21T00:33:53.051Z,15.80
2022-09-21T00:36:22.444Z,15.79
2022-09-21T00:38:54.833Z,15.79
2022-09-21T00:41:22.394Z,15.78
2022-09-21T00:44:18.523Z,15.76
2022-09-21T00:46:48.205Z,15.76
2022-09-21T00:49:15.640Z,15.74
2022-09-21T00:51:42.931Z,15.73
2022-09-21T00:54:16.377Z,15.70
2022-09-21T00:56:44.697Z,15.69
2022-09-21T00:59:13.684Z,15.68
2022-09-21T01:01:40.342Z,15.65
2022-09-21T01:04:13.701Z,15.63
2022-09-21T01:06:41.347Z,15.60
2022-09-21T01:09:09.082Z,15.55
2022-09-21T01:11:47.176Z,15.52
2022-09-21T01:14:53.538Z,15.47
2022-09-21T01:17:41.781Z,15.45
2022-09-21T01:20:14.049Z,15.43
2022-09-21T01:23:16.990Z,15.40
2022-09-21T01:26:02.194Z,15.40
2022-09-21T01:28:38.217Z,15.39
2022-09-21T01:31:12.068Z,15.38
2022-09-21T01:33:51.456Z,15.36
2022-09-21T01:37:08.435Z,15.32
2022-09-21T01:39:37.829Z,15.29
2022-09-21T01:42:06.946Z,15.25
2022-09-21T01:44:38.346Z,15.25
2022-09-21T01:47:09.856Z,15.25
2022-09-21T01:49:41.588Z,15.26
2022-09-21T01:52:31.489Z,15.25
2022-09-21T01:55:33.319Z,15.22
2022-09-21T01:58:12.221Z,15.21
2022-09-21T02:00:41.023Z,15.18
2022-09-21T02:03:13.819Z,15.16
2022-09-21T02:05:42.547Z,15.11
2022-09-21T02:08:10.142Z,15.08
2022-09-21T02:10:42.816Z,15.08
2022-09-21T02:13:10.001Z,15.06
2022-09-21T02:15:37.369Z,15.03
2022-09-21T02:18:29.710Z,14.96
2022-09-21T02:21:03.806Z,14.91
2022-09-21T02:23:34.238Z,14.84
2022-09-21T02:26:13.289Z,14.78
2022-09-21T02:28:42.886Z,14.70
2022-09-21T02:31:33.330Z,14.59
2022-09-21T02:34:14.069Z,14.55
2022-09-21T02:36:53.362Z,14.51
2022-09-21T02:39:29.724Z,14.49
2022-09-21T02:42:20.262Z,14.46
2022-09-21T02:45:19.041Z,14.43
2022-09-21T02:47:56.769Z,14.42
2022-09-21T02:50:32.967Z,14.39
2022-09-21T02:53:02.813Z,14.36
2022-09-21T02:55:31.194Z,14.33
2022-09-21T02:57:59.070Z,14.30
2022-09-21T03:00:25.619Z,14.28
2022-09-21T03:02:52.151Z,14.23
2022-09-21T03:05:19.671Z,14.19
2022-09-21T03:07:46.207Z,14.14
2022-09-21T03:10:12.715Z,14.10
2022-09-21T03:12:39.321Z,14.07
2022-09-21T03:15:06.345Z,14.07
2022-09-21T03:17:32.864Z,14.08
2022-09-21T03:19:59.344Z,14.08
2022-09-21T03:22:25.869Z,14.06
2022-09-21T03:24:57.549Z,14.03
2022-09-21T03:27:24.531Z,13.98
2022-09-21T03:29:51.060Z,13.93
2022-09-21T03:32:17.766Z,13.86
2022-09-21T03:34:45.649Z,13.83
2022-09-21T03:37:12.174Z,13.79
2022-09-21T03:39:38.710Z,13.77
2022-09-21T03:42:05.344Z,13.75
2022-09-21T03:44:31.973Z,13.73
2022-09-21T03:46:58.534Z,13.72
2022-09-21T03:49:25.362Z,13.69
2022-09-21T03:51:51.884Z,13.66
2022-09-21T03:54:19.939Z,13.60
2022-09-21T03:56:46.525Z,13.57
2022-09-21T03:59:14.394Z,13.54
2022-09-21T04:01:42.208Z,13.52
2022-09-21T04:04:12.994Z,13.49
2022-09-21T04:06:39.525Z,13.45
2022-09-21T04:09:06.282Z,13.43
2022-09-21T04:11:33.271Z,13.39
2022-09-21T04:14:01.918Z,13.39
2022-09-21T04:16:28.451Z,13.37
2022-09-21T04:18:54.978Z,13.34
2022-09-21T04:21:24.578Z,13.33
2022-09-21T04:23:52.649Z,13.34
2022-09-21T04:26:26.275Z,13.30
2022-09-21T04:28:54.089Z,13.28
2022-09-21T04:31:21.622Z,13.25
2022-09-21T04:33:50.448Z,13.20
2022-09-21T04:36:22.118Z,13.14
2022-09-21T04:38:49.017Z,13.08
2022-09-21T04:41:16.464Z,13.04
2022-09-21T04:43:47.487Z,13.02
2022-09-21T04:46:17.149Z,12.98
2022-09-21T04:48:43.701Z,12.96
2022-09-21T04:51:11.231Z,12.94
2022-09-21T04:53:43.027Z,12.91
2022-09-21T04:56:12.953Z,12.88
2022-09-21T04:58:39.624Z,12.84
2022-09-21T05:01:07.715Z,12.80
2022-09-21T05:03:37.674Z,12.81
2022-09-21T05:06:04.675Z,12.81
2022-09-21T05:08:49.935Z,12.82
2022-09-21T05:11:22.766Z,12.80
2022-09-21T05:13:50.942Z,12.79
2022-09-21T05:16:18.759Z,12.77
2022-09-21T05:18:46.100Z,12.77
2022-09-21T05:21:14.321Z,12.76
2022-09-21T05:23:42.238Z,12.74
2022-09-21T05:26:08.813Z,12.69
2022-09-21T05:28:39.838Z,12.65
2022-09-21T05:31:31.631Z,12.61
2022-09-21T05:34:12.050Z,12.57
2022-09-21T05:36:41.554Z,12.55
2022-09-21T05:39:08.718Z,12.52
2022-09-21T05:41:35.717Z,12.51
2022-09-21T05:44:05.791Z,12.50
2022-09-21T05:46:35.064Z,12.48
2022-09-21T05:49:27.238Z,12.47
2022-09-21T05:52:11.824Z,12.47
2022-09-21T05:54:41.789Z,12.46
2022-09-21T05:57:17.459Z,12.42
2022-09-21T06:00:12.089Z,12.40
2022-09-21T06:03:07.523Z,12.38
2022-09-21T06:05:34.710Z,12.37
2022-09-21T06:08:01.372Z,12.37
2022-09-21T06:10:33.633Z,12.37
2022-09-21T06:13:00.553Z,12.37
2022-09-21T06:15:27.421Z,12.37
2022-09-21T06:17:54.010Z,12.39
2022-09-21T06:20:20.593Z,12.42
2022-09-21T06:22:47.106Z,12.45
2022-09-21T06:25:15.285Z,12.48
2022-09-21T06:27:41.729Z,12.50
2022-09-21T06:30:08.518Z,12.53
2022-09-21T06:32:35.058Z,12.56
2022-09-21T06:35:01.667Z,12.58
2022-09-21T06:37:28.154Z,12.62
2022-09-21T06:39:54.670Z,12.66
2022-09-21T06:42:21.193Z,12.68
2022-09-21T06:44:49.477Z,12.70
2022-09-21T06:47:15.958Z,12.73
2022-09-21T06:49:42.803Z,12.80
2022-09-21T06:52:09.443Z,12.85
2022-09-21T06:54:36.806Z,12.92
2022-09-21T06:57:03.502Z,13.01
2022-09-21T06:59:29.986Z,13.09
2022-09-21T07:01:58.307Z,13.21
2022-09-21T07:04:25.382Z,13.38
2022-09-21T07:06:51.996Z,13.55
2022-09-21T07:12:07.050Z,13.93
2022-09-21T07:14:34.567Z,14.17
2022-09-21T07:17:01.055Z,14.40
2022-09-21T07:19:27.562Z,14.61
2022-09-21T07:21:55.029Z,14.87
2022-09-21T07:24:25.720Z,15.11
2022-09-21T07:26:52.929Z,15.32
2022-09-21T07:29:19.390Z,15.51
2022-09-21T07:31:46.036Z,15.72
2022-09-21T07:34:13.760Z,15.92
2022-09-21T07:36:40.521Z,16.11
2022-09-21T07:39:09.482Z,16.27
2022-09-21T07:41:36.577Z,16.43
2022-09-21T07:44:05.106Z,16.62
2022-09-21T07:46:31.781Z,16.84
2022-09-21T07:48:58.331Z,16.99
2022-09-21T07:51:25.244Z,17.12
2022-09-21T07:53:56.814Z,17.29
2022-09-21T07:56:24.305Z,17.42
2022-09-21T07:59:05.926Z,17.59
2022-09-21T08:01:38.365Z,17.78
2022-09-21T08:04:09.734Z,17.99
2022-09-21T08:06:39.809Z,18.11
2022-09-21T08:09:06.800Z,18.27
2022-09-21T08:11:33.690Z,18.49
2022-09-21T08:14:03.790Z,18.63
2022-09-21T08:16:31.713Z,18.79
2022-09-21T08:18:58.307Z,18.98
2022-09-21T08:21:24.817Z,19.18
2022-09-21T08:23:52.434Z,19.28
2022-09-21T08:26:19.950Z,19.39
2022-09-21T08:28:51.064Z,19.48
2022-09-21T08:31:20.137Z,19.59
2022-09-21T08:33:49.792Z,19.72
2022-09-21T08:36:16.954Z,19.85
2022-09-21T08:38:43.899Z,20.01
2022-09-21T08:41:16.332Z,20.17
2022-09-21T08:44:28.054Z,20.25
2022-09-21T08:47:19.126Z,20.42
2022-09-21T08:49:59.379Z,20.51
2022-09-21T08:52:26.587Z,20.58
2022-09-21T08:55:07.286Z,20.68
2022-09-21T08:57:34.421Z,20.78
2022-09-21T09:00:02.246Z,20.85
2022-09-21T09:02:37.808Z,20.91
2022-09-21T09:05:25.846Z,21.02
2022-09-21T09:08:05.859Z,21.13
2022-09-21T09:11:16.963Z,21.18
2022-09-21T09:14:21.465Z,21.22
2022-09-21T09:16:57.320Z,21.21
2022-09-21T09:19:38.433Z,21.17
2022-09-21T09:22:12.324Z,21.17
2022-09-21T09:25:06.018Z,21.13
2022-09-21T09:27:40.337Z,21.19
2022-09-21T09:30:12.541Z,21.20
2022-09-21T09:33:00.396Z,21.18
2022-09-21T09:35:36.353Z,21.26
2022-09-21T09:38:15.860Z,21.35
2022-09-21T09:40:54.885Z,21.46
2022-09-21T09:43:56.207Z,21.56
2022-09-21T09:46:25.843Z,21.66
2022-09-21T09:49:09.252Z,21.73
2022-09-21T09:51:37.538Z,21.80
2022-09-21T09:54:14.957Z,21.89
2022-09-21T09:56:42.261Z,21.99
2022-09-21T09:59:23.123Z,22.03
2022-09-21T10:02:00.918Z,22.00
2022-09-21T10:04:30.615Z,21.95
2022-09-21T10:06:57.183Z,21.93
2022-09-21T10:09:34.026Z,21.89
2022-09-21T10:12:14.904Z,21.84
2022-09-21T10:14:53.555Z,21.72
2022-09-21T10:17:20.430Z,21.67
2022-09-21T10:19:47.154Z,21.62
2022-09-21T10:22:20.327Z,21.59
2022-09-21T10:24:54.254Z,21.59
2022-09-21T10:27:34.429Z,21.61
2022-09-21T10:30:01.410Z,21.62
2022-09-21T10:32:29.620Z,21.68
2022-09-21T10:35:08.459Z,21.72
2022-09-21T10:37:41.340Z,21.83
2022-09-21T10:40:19.823Z,22.01
2022-09-21T10:42:49.029Z,22.19
2022-09-21T10:45:17.573Z,22.27
2022-09-21T10:47:55.980Z,22.25
2022-09-21T10:50:30.018Z,22.19
2022-09-21T10:53:02.216Z,22.12
2022-09-21T10:55:32.022Z,22.07
2022-09-21T10:57:59.638Z,22.03
2022-09-21T11:00:35.315Z,21.98
2022-09-21T11:03:26.230Z,21.96
2022-09-21T11:05:54.021Z,21.93
2022-09-21T11:08:32.894Z,21.89
2022-09-21T11:11:24.470Z,21.87
2022-09-21T11:14:01.048Z,21.86
2022-09-21T11:16:44.625Z,21.88
2022-09-21T11:19:21.277Z,21.93
2022-09-21T11:22:03.119Z,21.96
2022-09-21T11:24:52.550Z,21.93
2022-09-21T11:27:36.249Z,21.96
2022-09-21T11:30:14.099Z,21.97
2022-09-21T11:33:02.247Z,21.97
2022-09-21T11:35:52.926Z,21.96
2022-09-21T11:38:34.331Z,22.01
2022-09-21T11:41:27.300Z,22.03
2022-09-21T11:44:16.382Z,22.09
2022-09-21T11:47:07.269Z,22.18
2022-09-21T11:49:42.650Z,22.28
2022-09-21T11:52:21.384Z,22.33
2022-09-21T11:55:00.759Z,22.32
2022-09-21T11:57:42.638Z,22.36
2022-09-21T12:00:17.175Z,22.43
2022-09-21T12:02:53.067Z,22.51
2022-09-21T12:05:28.688Z,22.58
2022-09-21T12:08:10.376Z,22.75
2022-09-21T12:10:59.932Z,22.88
2022-09-21T12:13:56.031Z,22.93
2022-09-21T12:17:04.667Z,22.98
2022-09-21T12:19:55.911Z,23.07
2022-09-21T12:22:28.340Z,23.10
2022-09-21T12:25:02.607Z,23.14
2022-09-21T12:27:40.378Z,23.21
2022-09-21T12:30:19.422Z,23.27
2022-09-21T12:32:53.394Z,23.30
2022-09-21T12:35:26.301Z,23.34
2022-09-21T12:38:16.470Z,23.40
2022-09-21T12:41:20.264Z,23.53
2022-09-21T12:44:05.096Z,23.52
2022-09-21T12:46:38.837Z,23.47
2022-09-21T12:49:21.244Z,23.46
2022-09-21T12:51:56.959Z,23.50
2022-09-21T12:54:45.448Z,23.55
2022-09-21T13:00:22.276Z,23.81
2022-09-21T13:03:01.359Z,23.92
2022-09-21T13:05:27.836Z,24.01
2022-09-21T13:08:12.291Z,24.09
2022-09-21T13:11:05.647Z,24.17
2022-09-21T13:13:36.066Z,24.24
2022-09-21T13:16:05.495Z,24.28
2022-09-21T13:18:36.823Z,24.34
2022-09-21T13:21:18.444Z,24.47
2022-09-21T13:24:01.345Z,24.59
2022-09-21T13:26:38.952Z,24.69
2022-09-21T13:29:34.260Z,24.81
2022-09-21T13:32:23.798Z,24.93
2022-09-21T13:35:33.246Z,25.06
2022-09-21T13:38:34.424Z,25.10
2022-09-21T13:41:31.528Z,25.13
2022-09-21T13:44:41.034Z,25.20
2022-09-21T13:47:09.004Z,25.22
2022-09-21T13:49:43.301Z,25.19
2022-09-21T13:52:15.749Z,25.10
2022-09-21T13:54:52.210Z,25.06
2022-09-21T13:57:32.161Z,25.05
2022-09-21T14:00:19.870Z,24.98
2022-09-21T14:03:00.495Z,24.99
2022-09-21T14:05:43.221Z,24.95
2022-09-21T14:08:15.672Z,24.94
2022-09-21T14:10:57.303Z,24.95
2022-09-21T14:13:37.662Z,24.92
2022-09-21T14:16:36.414Z,24.92
2022-09-21T14:19:29.575Z,24.98
2022-09-21T14:22:08.395Z,24.94
2022-09-21T14:24:51.274Z,24.92
2022-09-21T14:27:36.790Z,24.93
2022-09-21T14:30:22.249Z,24.90
2022-09-21T14:33:00.838Z,24.89
2022-09-21T14:35:34.056Z,24.89
2022-09-21T14:38:07.910Z,24.86
2022-09-21T14:40:42.166Z,24.83
2022-09-21T14:43:14.868Z,24.87
2022-09-21T14:46:12.149Z,24.86
2022-09-21T14:48:52.075Z,24.79
2022-09-21T14:51:18.544Z,24.76
2022-09-21T14:54:04.472Z,24.71
2022-09-21T14:56:38.965Z,24.70
2022-09-21T14:59:38.366Z,24.67
2022-09-21T15:02:18.033Z,24.63
2022-09-21T15:05:12.681Z,24.57
2022-09-21T15:08:03.438Z,24.55
2022-09-21T15:10:55.310Z,24.50
2022-09-21T15:14:06.329Z,24.40
2022-09-21T15:16:42.152Z,24.27
2022-09-21T15:19:17.729Z,24.18
2022-09-21T15:21:49.986Z,24.08
2022-09-21T15:24:20.647Z,24.04
2022-09-21T15:26:49.893Z,24.00
2022-09-21T15:29:27.816Z,23.94
2022-09-21T15:31:54.806Z,23.86
2022-09-21T15:34:23.492Z,23.76
2022-09-21T15:36:52.073Z,23.68
2022-09-21T15:39:28.673Z,23.63
2022-09-21T15:42:10.513Z,23.53
2022-09-21T15:44:39.479Z,23.44
2022-09-21T15:47:12.468Z,23.38
2022-09-21T15:49:39.589Z,23.33
2022-09-21T15:52:13.566Z,23.26
2022-09-21T15:54:53.308Z,23.21
2022-09-21T15:57:40.307Z,23.18
2022-09-21T16:00:15.973Z,23.16
2022-09-21T16:02:51.811Z,23.13
2022-09-21T16:05:22.427Z,23.05
2022-09-21T16:07:49.057Z,23.00
2022-09-21T16:10:30.494Z,22.96
2022-09-21T16:13:22.967Z,22.95
2022-09-21T16:16:08.181Z,22.89
2022-09-21T16:18:49.250Z,22.87
2022-09-21T16:21:15.829Z,22.83
2022-09-21T16:23:45.336Z,22.78
2022-09-21T16:26:23.478Z,22.71
2022-09-21T16:28:57.088Z,22.66
2022-09-21T16:31:33.064Z,22.59
2022-09-21T16:34:36.649Z,22.47
2022-09-21T16:37:28.045Z,22.36
2022-09-21T16:39:56.840Z,22.28
2022-09-21T16:42:31.177Z,22.18
2022-09-21T16:44:59.697Z,22.07
2022-09-21T16:47:27.685Z,21.99
2022-09-21T16:50:01.320Z,21.92
2022-09-21T16:52:29.583Z,21.83
2022-09-21T16:55:00.173Z,21.74
2022-09-21T16:57:26.727Z,21.66
2022-09-21T16:59:53.673Z,21.58
2022-09-21T17:02:20.214Z,21.49
2022-09-21T17:04:47.913Z,21.41
2022-09-21T17:07:15.200Z,21.34
2022-09-21T17:09:46.207Z,21.23
2022-09-21T17:12:15.219Z,21.11
2022-09-21T17:14:46.766Z,21.01
2022-09-21T17:17:23.951Z,20.91
2022-09-21T17:19:52.605Z,20.82
2022-09-21T17:22:20.140Z,20.68
2022-09-21T17:24:53.903Z,20.59
2022-09-21T17:27:23.789Z,20.51
2022-09-21T17:29:50.797Z,20.44
2022-09-21T17:32:20.496Z,20.35
2022-09-21T17:34:56.200Z,20.24
2022-09-21T17:37:25.036Z,20.16
2022-09-21T17:39:51.564Z,20.10
2022-09-21T17:42:21.090Z,20.00
2022-09-21T17:45:03.203Z,19.93
2022-09-21T17:47:31.082Z,19.85
2022-09-21T17:50:06.430Z,19.76
2022-09-21T17:52:51.405Z,19.67
2022-09-21T17:55:18.277Z,19.59
2022-09-21T17:57:56.603Z,19.48
2022-09-21T18:00:25.178Z,19.36
2022-09-21T18:02:53.790Z,19.21
2022-09-21T18:05:27.043Z,19.10
2022-09-21T18:07:53.865Z,19.05
2022-09-21T18:10:22.665Z,18.95
2022-09-21T18:13:10.510Z,18.85
2022-09-21T18:15:53.690Z,18.73
2022-09-21T18:18:31.747Z,18.57
2022-09-21T18:21:04.414Z,18.48
2022-09-21T18:24:03.254Z,18.42
2022-09-21T18:26:30.114Z,18.42
2022-09-21T18:28:59.494Z,18.39
2022-09-21T18:31:48.970Z,18.30
2022-09-21T18:34:58.359Z,18.18
2022-09-21T18:37:31.290Z,18.05
2022-09-21T18:40:21.857Z,17.94
2022-09-21T18:42:55.670Z,17.86
2022-09-21T18:45:28.303Z,17.79
2022-09-21T18:48:06.682Z,17.74
2022-09-21T18:50:58.199Z,17.71
2022-09-21T18:53:53.666Z,17.65
2022-09-21T18:56:20.451Z,17.61
2022-09-21T18:58:47.837Z,17.58
2022-09-21T19:01:16.909Z,17.55
2022-09-21T19:03:49.711Z,17.47
2022-09-21T19:06:27.299Z,17.45
2022-09-21T19:08:56.685Z,17.45
2022-09-21T19:11:32.387Z,17.40
2022-09-21T19:14:17.500Z,17.36
2022-09-21T19:16:53.198Z,17.35
2022-09-21T19:19:45.739Z,17.30
2022-09-21T19:22:18.714Z,17.25
2022-09-21T19:24:58.322Z,17.16
2022-09-21T19:27:27.884Z,17.00
2022-09-21T19:30:04.941Z,16.85
2022-09-21T19:32:36.054Z,16.73
2022-09-21T19:35:27.690Z,16.61
2022-09-21T19:37:56.527Z,16.59
2022-09-21T19:40:26.008Z,16.57
2022-09-21T19:43:16.300Z,16.56
2022-09-21T19:46:10.353Z,16.48
2022-09-21T19:48:48.550Z,16.44
2022-09-21T19:51:39.450Z,16.42
2022-09-21T19:54:33.427Z,16.43
2022-09-21T19:57:19.338Z,16.40
2022-09-21T19:59:46.918Z,16.36
2022-09-21T20:02:28.449Z,16.38
2022-09-21T20:05:08.716Z,16.37
2022-09-21T20:07:54.473Z,16.35
2022-09-21T20:10:28.753Z,16.37
2022-09-21T20:13:04.841Z,16.38
2022-09-21T20:15:39.969Z,16.34
2022-09-21T20:18:29.597Z,16.31
2022-09-21T20:20:57.522Z,16.32
2022-09-21T20:23:24.286Z,16.31
2022-09-21T20:26:00.570Z,16.30
2022-09-21T20:28:27.354Z,16.27
2022-09-21T20:30:54.680Z,16.24
2022-09-21T20:33:24.040Z,16.20
2022-09-21T20:35:55.684Z,16.14
2022-09-21T20:38:23.153Z,16.11
2022-09-21T20:40:49.764Z,16.07
2022-09-21T20:43:16.273Z,16.05
2022-09-21T20:45:47.665Z,16.03
2022-09-21T20:48:14.351Z,15.98
2022-09-21T20:50:46.504Z,15.94
2022-09-21T20:53:13.182Z,15.93
2022-09-21T20:55:41.238Z,15.92
2022-09-21T20:58:11.474Z,15.94
2022-09-21T21:00:38.108Z,15.92
2022-09-21T21:03:05.216Z,15.93
2022-09-21T21:05:33.436Z,15.91
2022-09-21T21:08:00.241Z,15.88
2022-09-21T21:10:26.797Z,15.87
2022-09-21T21:12:53.502Z,15.87
2022-09-21T21:15:21.228Z,15.83
2022-09-21T21:17:48.684Z,15.78
2022-09-21T21:20:18.490Z,15.73
2022-09-21T21:22:48.136Z,15.70
2022-09-21T21:25:16.363Z,15.67
2022-09-21T21:27:42.928Z,15.64
2022-09-21T21:30:10.461Z,15.60
2022-09-21T21:32:37.277Z,15.57
2022-09-21T21:35:04.846Z,15.54
2022-09-21T21:37:31.355Z,15.53
2022-09-21T21:39:58.456Z,15.52
2022-09-21T21:42:25.042Z,15.50
2022-09-21T21:44:56.107Z,15.47
2022-09-21T21:50:10.600Z,15.40
2022-09-21T21:52:37.771Z,15.38
2022-09-21T21:55:10.021Z,15.34
2022-09-21T21:57:36.522Z,15.32
2022-09-21T22:00:04.710Z,15.29
2022-09-21T22:02:31.584Z,15.24
2022-09-21T22:04:59.141Z,15.21
2022-09-21T22:07:25.598Z,15.17
2022-09-21T22:09:52.075Z,15.15
2022-09-21T22:12:18.558Z,15.13
2022-09-21T22:14:46.476Z,15.09
2022-09-21T22:17:13.610Z,15.06
2022-09-21T22:19:40.307Z,15.02
2022-09-21T22:22:06.777Z,14.98
2022-09-21T22:24:34.853Z,14.95
2022-09-21T22:27:01.413Z,14.92
2022-09-21T22:29:27.884Z,14.88
2022-09-21T22:31:55.500Z,14.86
2022-09-21T22:34:24.890Z,14.83
2022-09-21T22:36:51.438Z,14.80
2022-09-21T22:39:18.217Z,14.76
2022-09-21T22:41:44.807Z,14.74
2022-09-21T22:44:15.905Z,14.71
2022-09-21T22:46:42.444Z,14.69
2022-09-21T22:49:08.985Z,14.67
2022-09-21T22:51:36.083Z,14.64
2022-09-21T22:54:02.918Z,14.59
2022-09-21T22:56:31.555Z,14.55
2022-09-21T22:59:00.998Z,14.52
2022-09-21T23:01:30.262Z,14.47
2022-09-21T23:04:06.975Z,14.43
2022-09-21T23:06:36.008Z,14.40
2022-09-21T23:09:06.487Z,14.34
2022-09-21T23:11:38.678Z,14.30
2022-09-21T23:14:11.250Z,14.25
2022-09-21T23:16:38.073Z,14.21
2022-09-21T23:19:04.777Z,14.15
2022-09-21T23:21:31.510Z,14.10
2022-09-21T23:24:01.837Z,14.04
2022-09-21T23:26:30.748Z,13.96
2022-09-21T23:29:03.508Z,13.93
2022-09-21T23:31:31.761Z,13.91
2022-09-21T23:34:04.603Z,13.87
2022-09-21T23:36:32.555Z,13.84
2022-09-21T23:38:59.840Z,13.82
2022-09-21T23:41:29.794Z,13.81
2022-09-21T23:43:57.860Z,13.82
2022-09-21T23:46:28.211Z,13.83
2022-09-21T23:48:54.877Z,13.84
2022-09-21T23:51:22.041Z,13.83
2022-09-21T23:53:52.017Z,13.82
2022-09-21T23:56:21.493Z,13.81
2022-09-21T23:58:49.339Z,13.79
